sensor_id;sensor_type;location;lat;lon;timestamp;P1;durP1;ratioP1;P2;durP2;ratioP2
36691;SDS011;22678;52.052;4.242;2023-02-13T00:01:59;31.27;;;14.27;;
36691;SDS011;22678;52.052;4.242;2023-02-13T00:04:24;32.73;;;15.90;;
36691;SDS011;22678;52.052;4.242;2023-02-13T00:06:49;30.17;;;14.13;;
36691;SDS011;22678;52.052;4.242;2023-02-13T00:09:15;30.87;;;14.20;;
36691;SDS011;22678;52.052;4.242;2023-02-13T00:11:40;34.20;;;16.97;;
36691;SDS011;22678;52.052;4.242;2023-02-13T00:14:05;31.97;;;16.33;;
36691;SDS011;22678;52.052;4.242;2023-02-13T00:16:31;31.43;;;15.70;;
36691;SDS011;22678;52.052;4.242;2023-02-13T00:18:57;36.47;;;18.33;;
36691;SDS011;22678;52.052;4.242;2023-02-13T00:21:22;33.30;;;17.17;;
36691;SDS011;22678;52.052;4.242;2023-02-13T00:23:47;33.23;;;16.70;;
36691;SDS011;22678;52.052;4.242;2023-02-13T00:26:13;32.50;;;14.63;;
36691;SDS011;22678;52.052;4.242;2023-02-13T00:28:40;34.43;;;16.23;;
36691;SDS011;22678;52.052;4.242;2023-02-13T00:31:10;35.37;;;17.17;;
36691;SDS011;22678;52.052;4.242;2023-02-13T00:33:39;32.03;;;14.43;;
36691;SDS011;22678;52.052;4.242;2023-02-13T00:36:09;37.77;;;17.07;;
36691;SDS011;22678;52.052;4.242;2023-02-13T00:38:36;37.17;;;16.73;;
36691;SDS011;22678;52.052;4.242;2023-02-13T00:41:03;36.00;;;17.07;;
36691;SDS011;22678;52.052;4.242;2023-02-13T00:43:28;36.40;;;16.73;;
36691;SDS011;22678;52.052;4.242;2023-02-13T00:45:54;29.87;;;14.83;;
36691;SDS011;22678;52.052;4.242;2023-02-13T00:48:19;34.87;;;15.90;;
36691;SDS011;22678;52.052;4.242;2023-02-13T00:50:45;33.13;;;15.30;;
36691;SDS011;22678;52.052;4.242;2023-02-13T00:53:11;34.43;;;15.80;;
36691;SDS011;22678;52.052;4.242;2023-02-13T00:55:36;32.83;;;15.67;;
36691;SDS011;22678;52.052;4.242;2023-02-13T00:58:01;33.50;;;18.33;;
36691;SDS011;22678;52.052;4.242;2023-02-13T01:00:27;33.93;;;14.47;;
36691;SDS011;22678;52.052;4.242;2023-02-13T01:02:52;28.90;;;14.43;;
36691;SDS011;22678;52.052;4.242;2023-02-13T01:05:18;32.93;;;16.53;;
36691;SDS011;22678;52.052;4.242;2023-02-13T01:07:43;28.63;;;12.47;;
36691;SDS011;22678;52.052;4.242;2023-02-13T01:10:08;33.20;;;16.37;;
36691;SDS011;22678;52.052;4.242;2023-02-13T01:12:34;33.17;;;17.70;;
36691;SDS011;22678;52.052;4.242;2023-02-13T01:14:59;32.60;;;14.83;;
36691;SDS011;22678;52.052;4.242;2023-02-13T01:17:25;35.53;;;15.40;;
36691;SDS011;22678;52.052;4.242;2023-02-13T01:19:50;35.53;;;17.00;;
36691;SDS011;22678;52.052;4.242;2023-02-13T01:22:15;37.30;;;17.17;;
36691;SDS011;22678;52.052;4.242;2023-02-13T01:24:40;37.77;;;16.23;;
36691;SDS011;22678;52.052;4.242;2023-02-13T01:27:06;27.70;;;15.60;;
36691;SDS011;22678;52.052;4.242;2023-02-13T01:29:31;33.00;;;15.50;;
36691;SDS011;22678;52.052;4.242;2023-02-13T01:31:56;29.13;;;15.10;;
36691;SDS011;22678;52.052;4.242;2023-02-13T01:34:22;35.30;;;18.43;;
36691;SDS011;22678;52.052;4.242;2023-02-13T01:36:47;32.50;;;15.10;;
36691;SDS011;22678;52.052;4.242;2023-02-13T01:39:13;36.63;;;14.73;;
36691;SDS011;22678;52.052;4.242;2023-02-13T01:41:38;31.07;;;14.67;;
36691;SDS011;22678;52.052;4.242;2023-02-13T01:44:43;32.53;;;15.03;;
36691;SDS011;22678;52.052;4.242;2023-02-13T01:47:08;37.47;;;17.73;;
36691;SDS011;22678;52.052;4.242;2023-02-13T01:49:34;34.27;;;15.53;;
36691;SDS011;22678;52.052;4.242;2023-02-13T01:52:00;32.80;;;16.07;;
36691;SDS011;22678;52.052;4.242;2023-02-13T01:54:27;36.43;;;16.17;;
36691;SDS011;22678;52.052;4.242;2023-02-13T01:57:14;35.43;;;15.80;;
36691;SDS011;22678;52.052;4.242;2023-02-13T02:02:22;33.20;;;16.03;;
36691;SDS011;22678;52.052;4.242;2023-02-13T02:04:48;28.20;;;15.30;;
36691;SDS011;22678;52.052;4.242;2023-02-13T02:07:18;39.13;;;19.47;;
36691;SDS011;22678;52.052;4.242;2023-02-13T02:09:47;36.50;;;17.30;;
36691;SDS011;22678;52.052;4.242;2023-02-13T02:12:40;36.60;;;17.37;;
36691;SDS011;22678;52.052;4.242;2023-02-13T02:15:10;31.53;;;16.20;;
36691;SDS011;22678;52.052;4.242;2023-02-13T02:17:36;36.40;;;15.83;;
36691;SDS011;22678;52.052;4.242;2023-02-13T02:40:25;32.80;;;16.00;;
36691;SDS011;22678;52.052;4.242;2023-02-13T02:43:01;38.40;;;17.37;;
36691;SDS011;22678;52.052;4.242;2023-02-13T02:45:50;30.27;;;15.70;;
36691;SDS011;22678;52.052;4.242;2023-02-13T02:48:31;32.83;;;15.73;;
36691;SDS011;22678;52.052;4.242;2023-02-13T02:54:02;35.37;;;15.33;;
36691;SDS011;22678;52.052;4.242;2023-02-13T02:56:49;38.47;;;19.43;;
36691;SDS011;22678;52.052;4.242;2023-02-13T02:59:16;32.30;;;17.00;;
36691;SDS011;22678;52.052;4.242;2023-02-13T03:02:03;33.70;;;15.70;;
36691;SDS011;22678;52.052;4.242;2023-02-13T03:04:52;35.43;;;17.67;;
36691;SDS011;22678;52.052;4.242;2023-02-13T03:07:38;37.27;;;17.37;;
36691;SDS011;22678;52.052;4.242;2023-02-13T03:10:05;41.53;;;21.73;;
36691;SDS011;22678;52.052;4.242;2023-02-13T03:13:02;38.53;;;19.00;;
36691;SDS011;22678;52.052;4.242;2023-02-13T03:15:56;35.25;;;18.50;;
36691;SDS011;22678;52.052;4.242;2023-02-13T03:18:44;35.87;;;18.20;;
36691;SDS011;22678;52.052;4.242;2023-02-13T03:35:36;34.53;;;16.83;;
36691;SDS011;22678;52.052;4.242;2023-02-13T03:38:28;35.97;;;18.63;;
36691;SDS011;22678;52.052;4.242;2023-02-13T03:46:38;33.10;;;17.50;;
36691;SDS011;22678;52.052;4.242;2023-02-13T03:49:09;41.23;;;16.20;;
36691;SDS011;22678;52.052;4.242;2023-02-13T03:52:34;39.75;;;18.90;;
36691;SDS011;22678;52.052;4.242;2023-02-13T03:55:17;45.17;;;19.93;;
36691;SDS011;22678;52.052;4.242;2023-02-13T03:58:08;36.33;;;16.20;;
36691;SDS011;22678;52.052;4.242;2023-02-13T04:00:57;43.65;;;19.50;;
36691;SDS011;22678;52.052;4.242;2023-02-13T04:06:13;38.77;;;16.87;;
36691;SDS011;22678;52.052;4.242;2023-02-13T04:08:42;40.77;;;19.73;;
36691;SDS011;22678;52.052;4.242;2023-02-13T04:11:14;36.87;;;16.97;;
36691;SDS011;22678;52.052;4.242;2023-02-13T04:13:51;38.70;;;17.53;;
36691;SDS011;22678;52.052;4.242;2023-02-13T04:16:22;37.50;;;16.77;;
36691;SDS011;22678;52.052;4.242;2023-02-13T04:18:55;33.47;;;17.23;;
36691;SDS011;22678;52.052;4.242;2023-02-13T04:21:21;39.17;;;17.83;;
36691;SDS011;22678;52.052;4.242;2023-02-13T04:23:47;39.93;;;19.60;;
36691;SDS011;22678;52.052;4.242;2023-02-13T04:26:16;41.57;;;19.93;;
36691;SDS011;22678;52.052;4.242;2023-02-13T04:28:44;36.40;;;17.45;;
36691;SDS011;22678;52.052;4.242;2023-02-13T04:31:09;38.83;;;18.17;;
36691;SDS011;22678;52.052;4.242;2023-02-13T04:33:35;31.53;;;16.43;;
36691;SDS011;22678;52.052;4.242;2023-02-13T04:36:00;41.00;;;19.67;;
36691;SDS011;22678;52.052;4.242;2023-02-13T04:38:25;40.67;;;16.90;;
36691;SDS011;22678;52.052;4.242;2023-02-13T04:40:51;40.57;;;18.67;;
36691;SDS011;22678;52.052;4.242;2023-02-13T04:43:16;35.87;;;17.33;;
36691;SDS011;22678;52.052;4.242;2023-02-13T04:45:41;38.07;;;19.20;;
36691;SDS011;22678;52.052;4.242;2023-02-13T04:48:07;37.83;;;20.73;;
36691;SDS011;22678;52.052;4.242;2023-02-13T04:50:33;39.00;;;17.70;;
36691;SDS011;22678;52.052;4.242;2023-02-13T04:52:58;38.13;;;19.80;;
36691;SDS011;22678;52.052;4.242;2023-02-13T04:55:24;39.50;;;16.93;;
36691;SDS011;22678;52.052;4.242;2023-02-13T04:57:51;41.23;;;17.93;;
36691;SDS011;22678;52.052;4.242;2023-02-13T05:00:18;38.27;;;18.23;;
36691;SDS011;22678;52.052;4.242;2023-02-13T05:02:44;44.07;;;19.13;;
36691;SDS011;22678;52.052;4.242;2023-02-13T05:05:10;41.90;;;21.07;;
36691;SDS011;22678;52.052;4.242;2023-02-13T05:07:35;35.50;;;18.47;;
36691;SDS011;22678;52.052;4.242;2023-02-13T05:10:00;32.70;;;16.03;;
36691;SDS011;22678;52.052;4.242;2023-02-13T05:12:26;39.50;;;19.10;;
36691;SDS011;22678;52.052;4.242;2023-02-13T05:14:51;36.47;;;17.83;;
36691;SDS011;22678;52.052;4.242;2023-02-13T05:17:16;39.97;;;19.10;;
36691;SDS011;22678;52.052;4.242;2023-02-13T05:19:42;40.73;;;18.57;;
36691;SDS011;22678;52.052;4.242;2023-02-13T05:22:07;35.93;;;17.07;;
36691;SDS011;22678;52.052;4.242;2023-02-13T05:24:52;40.50;;;20.03;;
36691;SDS011;22678;52.052;4.242;2023-02-13T05:27:17;33.17;;;17.80;;
36691;SDS011;22678;52.052;4.242;2023-02-13T05:29:42;35.33;;;18.40;;
36691;SDS011;22678;52.052;4.242;2023-02-13T05:32:07;45.57;;;20.57;;
36691;SDS011;22678;52.052;4.242;2023-02-13T05:34:33;34.97;;;19.00;;
36691;SDS011;22678;52.052;4.242;2023-02-13T05:36:58;39.83;;;17.63;;
36691;SDS011;22678;52.052;4.242;2023-02-13T05:39:24;40.77;;;20.97;;
36691;SDS011;22678;52.052;4.242;2023-02-13T05:41:49;33.03;;;15.33;;
36691;SDS011;22678;52.052;4.242;2023-02-13T05:44:15;40.70;;;18.47;;
36691;SDS011;22678;52.052;4.242;2023-02-13T05:46:41;39.47;;;19.87;;
36691;SDS011;22678;52.052;4.242;2023-02-13T05:49:09;40.47;;;19.83;;
36691;SDS011;22678;52.052;4.242;2023-02-13T05:51:35;40.70;;;20.57;;
36691;SDS011;22678;52.052;4.242;2023-02-13T05:54:01;37.13;;;18.57;;
36691;SDS011;22678;52.052;4.242;2023-02-13T05:56:26;37.33;;;19.60;;
36691;SDS011;22678;52.052;4.242;2023-02-13T05:58:55;40.83;;;17.83;;
36691;SDS011;22678;52.052;4.242;2023-02-13T06:01:21;36.00;;;20.07;;
36691;SDS011;22678;52.052;4.242;2023-02-13T06:03:48;37.90;;;17.30;;
36691;SDS011;22678;52.052;4.242;2023-02-13T06:06:13;37.93;;;19.00;;
36691;SDS011;22678;52.052;4.242;2023-02-13T06:08:39;41.70;;;19.90;;
36691;SDS011;22678;52.052;4.242;2023-02-13T06:11:05;40.40;;;20.13;;
36691;SDS011;22678;52.052;4.242;2023-02-13T06:13:30;34.87;;;17.93;;
36691;SDS011;22678;52.052;4.242;2023-02-13T06:15:55;40.80;;;21.10;;
36691;SDS011;22678;52.052;4.242;2023-02-13T06:18:21;37.67;;;19.07;;
36691;SDS011;22678;52.052;4.242;2023-02-13T06:20:47;36.90;;;17.33;;
36691;SDS011;22678;52.052;4.242;2023-02-13T06:23:12;33.13;;;16.60;;
36691;SDS011;22678;52.052;4.242;2023-02-13T06:25:37;43.10;;;19.10;;
36691;SDS011;22678;52.052;4.242;2023-02-13T06:28:03;39.53;;;21.40;;
36691;SDS011;22678;52.052;4.242;2023-02-13T06:30:29;32.93;;;16.37;;
36691;SDS011;22678;52.052;4.242;2023-02-13T06:32:55;39.13;;;17.47;;
36691;SDS011;22678;52.052;4.242;2023-02-13T06:35:20;41.70;;;19.83;;
36691;SDS011;22678;52.052;4.242;2023-02-13T06:37:46;35.93;;;17.43;;
36691;SDS011;22678;52.052;4.242;2023-02-13T06:40:12;39.83;;;18.23;;
36691;SDS011;22678;52.052;4.242;2023-02-13T06:42:39;36.57;;;17.53;;
36691;SDS011;22678;52.052;4.242;2023-02-13T06:45:06;34.60;;;16.33;;
36691;SDS011;22678;52.052;4.242;2023-02-13T06:47:31;36.83;;;18.50;;
36691;SDS011;22678;52.052;4.242;2023-02-13T06:49:57;34.37;;;17.17;;
36691;SDS011;22678;52.052;4.242;2023-02-13T06:52:22;40.57;;;19.70;;
36691;SDS011;22678;52.052;4.242;2023-02-13T06:54:47;37.80;;;18.37;;
36691;SDS011;22678;52.052;4.242;2023-02-13T06:57:13;35.13;;;16.17;;
36691;SDS011;22678;52.052;4.242;2023-02-13T06:59:38;43.23;;;18.70;;
36691;SDS011;22678;52.052;4.242;2023-02-13T07:02:03;41.60;;;18.57;;
36691;SDS011;22678;52.052;4.242;2023-02-13T07:04:28;39.03;;;18.10;;
36691;SDS011;22678;52.052;4.242;2023-02-13T07:06:54;38.57;;;18.60;;
36691;SDS011;22678;52.052;4.242;2023-02-13T07:09:20;34.57;;;15.97;;
36691;SDS011;22678;52.052;4.242;2023-02-13T07:11:46;34.17;;;17.63;;
36691;SDS011;22678;52.052;4.242;2023-02-13T07:14:11;38.80;;;20.40;;
36691;SDS011;22678;52.052;4.242;2023-02-13T07:16:37;35.93;;;17.70;;
36691;SDS011;22678;52.052;4.242;2023-02-13T07:19:02;34.57;;;16.37;;
36691;SDS011;22678;52.052;4.242;2023-02-13T07:21:27;36.20;;;18.00;;
36691;SDS011;22678;52.052;4.242;2023-02-13T07:23:52;33.50;;;17.87;;
36691;SDS011;22678;52.052;4.242;2023-02-13T07:26:18;38.27;;;16.90;;
36691;SDS011;22678;52.052;4.242;2023-02-13T07:28:43;38.20;;;18.57;;
36691;SDS011;22678;52.052;4.242;2023-02-13T07:31:09;34.73;;;17.60;;
36691;SDS011;22678;52.052;4.242;2023-02-13T07:33:35;37.03;;;19.50;;
36691;SDS011;22678;52.052;4.242;2023-02-13T07:36:01;34.80;;;15.43;;
36691;SDS011;22678;52.052;4.242;2023-02-13T07:38:29;39.80;;;16.27;;
36691;SDS011;22678;52.052;4.242;2023-02-13T07:40:59;40.63;;;20.13;;
36691;SDS011;22678;52.052;4.242;2023-02-13T07:43:26;38.03;;;15.73;;
36691;SDS011;22678;52.052;4.242;2023-02-13T07:45:51;32.07;;;16.40;;
36691;SDS011;22678;52.052;4.242;2023-02-13T07:48:21;36.90;;;17.27;;
36691;SDS011;22678;52.052;4.242;2023-02-13T07:50:46;33.47;;;16.30;;
36691;SDS011;22678;52.052;4.242;2023-02-13T07:53:12;37.17;;;19.77;;
36691;SDS011;22678;52.052;4.242;2023-02-13T07:55:37;35.50;;;17.60;;
36691;SDS011;22678;52.052;4.242;2023-02-13T07:58:03;51.97;;;20.00;;
36691;SDS011;22678;52.052;4.242;2023-02-13T08:00:28;36.57;;;18.47;;
36691;SDS011;22678;52.052;4.242;2023-02-13T08:02:54;35.40;;;17.33;;
36691;SDS011;22678;52.052;4.242;2023-02-13T08:05:19;35.07;;;16.60;;
36691;SDS011;22678;52.052;4.242;2023-02-13T08:07:44;37.23;;;17.27;;
36691;SDS011;22678;52.052;4.242;2023-02-13T08:10:10;31.30;;;16.10;;
36691;SDS011;22678;52.052;4.242;2023-02-13T08:12:55;33.33;;;16.83;;
36691;SDS011;22678;52.052;4.242;2023-02-13T08:15:20;38.60;;;17.33;;
36691;SDS011;22678;52.052;4.242;2023-02-13T08:17:46;32.07;;;17.43;;
36691;SDS011;22678;52.052;4.242;2023-02-13T08:20:11;32.23;;;16.60;;
36691;SDS011;22678;52.052;4.242;2023-02-13T08:22:36;40.63;;;20.80;;
36691;SDS011;22678;52.052;4.242;2023-02-13T08:25:03;34.50;;;15.77;;
36691;SDS011;22678;52.052;4.242;2023-02-13T08:27:29;36.03;;;16.97;;
36691;SDS011;22678;52.052;4.242;2023-02-13T08:29:57;37.80;;;19.83;;
36691;SDS011;22678;52.052;4.242;2023-02-13T08:32:24;53.33;;;27.70;;
36691;SDS011;22678;52.052;4.242;2023-02-13T08:34:50;46.60;;;20.70;;
36691;SDS011;22678;52.052;4.242;2023-02-13T08:37:16;35.40;;;17.07;;
36691;SDS011;22678;52.052;4.242;2023-02-13T08:39:41;41.93;;;20.87;;
36691;SDS011;22678;52.052;4.242;2023-02-13T08:42:07;38.70;;;21.40;;
36691;SDS011;22678;52.052;4.242;2023-02-13T08:44:33;41.67;;;21.37;;
36691;SDS011;22678;52.052;4.242;2023-02-13T08:46:58;37.43;;;19.70;;
36691;SDS011;22678;52.052;4.242;2023-02-13T08:49:27;40.83;;;21.67;;
36691;SDS011;22678;52.052;4.242;2023-02-13T08:51:56;43.13;;;21.00;;
36691;SDS011;22678;52.052;4.242;2023-02-13T08:54:21;38.00;;;20.40;;
36691;SDS011;22678;52.052;4.242;2023-02-13T08:56:46;37.50;;;20.30;;
36691;SDS011;22678;52.052;4.242;2023-02-13T08:59:12;40.90;;;20.63;;
36691;SDS011;22678;52.052;4.242;2023-02-13T09:01:37;41.43;;;21.30;;
36691;SDS011;22678;52.052;4.242;2023-02-13T09:04:02;43.13;;;20.07;;
36691;SDS011;22678;52.052;4.242;2023-02-13T09:06:28;37.53;;;20.20;;
36691;SDS011;22678;52.052;4.242;2023-02-13T09:08:53;41.27;;;19.97;;
36691;SDS011;22678;52.052;4.242;2023-02-13T09:11:19;41.07;;;20.07;;
36691;SDS011;22678;52.052;4.242;2023-02-13T09:13:47;48.37;;;23.90;;
36691;SDS011;22678;52.052;4.242;2023-02-13T09:16:13;41.13;;;21.70;;
36691;SDS011;22678;52.052;4.242;2023-02-13T09:18:38;37.60;;;21.50;;
36691;SDS011;22678;52.052;4.242;2023-02-13T09:21:04;42.53;;;20.57;;
36691;SDS011;22678;52.052;4.242;2023-02-13T09:23:32;44.97;;;23.60;;
36691;SDS011;22678;52.052;4.242;2023-02-13T09:26:03;41.50;;;21.43;;
36691;SDS011;22678;52.052;4.242;2023-02-13T09:28:30;39.57;;;21.97;;
36691;SDS011;22678;52.052;4.242;2023-02-13T09:30:57;37.70;;;20.10;;
36691;SDS011;22678;52.052;4.242;2023-02-13T09:33:23;37.93;;;20.87;;
36691;SDS011;22678;52.052;4.242;2023-02-13T09:35:48;42.80;;;20.23;;
36691;SDS011;22678;52.052;4.242;2023-02-13T09:38:14;34.03;;;18.43;;
36691;SDS011;22678;52.052;4.242;2023-02-13T09:43:06;43.77;;;21.07;;
36691;SDS011;22678;52.052;4.242;2023-02-13T09:45:37;41.10;;;22.05;;
36691;SDS011;22678;52.052;4.242;2023-02-13T09:48:04;38.63;;;20.60;;
36691;SDS011;22678;52.052;4.242;2023-02-13T09:50:30;37.80;;;22.07;;
36691;SDS011;22678;52.052;4.242;2023-02-13T09:52:59;43.23;;;23.63;;
36691;SDS011;22678;52.052;4.242;2023-02-13T09:55:31;40.80;;;22.10;;
36691;SDS011;22678;52.052;4.242;2023-02-13T10:00:58;40.93;;;22.67;;
36691;SDS011;22678;52.052;4.242;2023-02-13T10:14:31;49.37;;;27.93;;
36691;SDS011;22678;52.052;4.242;2023-02-13T10:17:10;48.22;;;21.58;;
36691;SDS011;22678;52.052;4.242;2023-02-13T10:22:10;44.47;;;24.57;;
36691;SDS011;22678;52.052;4.242;2023-02-13T10:24:47;44.00;;;22.77;;
36691;SDS011;22678;52.052;4.242;2023-02-13T10:30:04;39.47;;;23.53;;
36691;SDS011;22678;52.052;4.242;2023-02-13T10:32:34;40.57;;;23.83;;
36691;SDS011;22678;52.052;4.242;2023-02-13T10:35:14;41.47;;;22.93;;
36691;SDS011;22678;52.052;4.242;2023-02-13T10:37:47;42.90;;;22.17;;
36691;SDS011;22678;52.052;4.242;2023-02-13T10:40:17;43.87;;;21.97;;
36691;SDS011;22678;52.052;4.242;2023-02-13T10:42:44;42.77;;;22.53;;
36691;SDS011;22678;52.052;4.242;2023-02-13T10:53:49;43.00;;;24.10;;
36691;SDS011;22678;52.052;4.242;2023-02-13T10:56:51;53.10;;;28.40;;
36691;SDS011;22678;52.052;4.242;2023-02-13T11:02:24;52.03;;;24.37;;
36691;SDS011;22678;52.052;4.242;2023-02-13T11:04:57;50.77;;;26.37;;
36691;SDS011;22678;52.052;4.242;2023-02-13T11:07:25;47.23;;;25.87;;
36691;SDS011;22678;52.052;4.242;2023-02-13T11:09:52;50.13;;;26.77;;
36691;SDS011;22678;52.052;4.242;2023-02-13T11:12:32;46.43;;;26.27;;
36691;SDS011;22678;52.052;4.242;2023-02-13T11:14:59;42.63;;;22.98;;
36691;SDS011;22678;52.052;4.242;2023-02-13T11:17:36;42.03;;;24.20;;
36691;SDS011;22678;52.052;4.242;2023-02-13T11:22:48;46.70;;;26.53;;
36691;SDS011;22678;52.052;4.242;2023-02-13T11:25:26;43.40;;;23.13;;
36691;SDS011;22678;52.052;4.242;2023-02-13T11:28:09;47.30;;;25.48;;
36691;SDS011;22678;52.052;4.242;2023-02-13T11:30:41;44.25;;;24.52;;
36691;SDS011;22678;52.052;4.242;2023-02-13T11:35:41;42.40;;;23.20;;
36691;SDS011;22678;52.052;4.242;2023-02-13T11:40:39;36.38;;;22.92;;
36691;SDS011;22678;52.052;4.242;2023-02-13T11:43:13;38.00;;;21.45;;
36691;SDS011;22678;52.052;4.242;2023-02-13T11:45:43;40.28;;;21.80;;
36691;SDS011;22678;52.052;4.242;2023-02-13T11:48:16;44.65;;;23.92;;
36691;SDS011;22678;52.052;4.242;2023-02-13T11:50:49;37.85;;;19.80;;
36691;SDS011;22678;52.052;4.242;2023-02-13T11:58:31;45.97;;;27.08;;
36691;SDS011;22678;52.052;4.242;2023-02-13T12:01:10;43.40;;;23.42;;
36691;SDS011;22678;52.052;4.242;2023-02-13T12:03:42;43.20;;;22.25;;
36691;SDS011;22678;52.052;4.242;2023-02-13T12:08:34;37.13;;;19.50;;
36691;SDS011;22678;52.052;4.242;2023-02-13T12:11:01;46.15;;;22.30;;
36691;SDS011;22678;52.052;4.242;2023-02-13T12:13:36;37.38;;;21.02;;
36691;SDS011;22678;52.052;4.242;2023-02-13T12:16:05;40.78;;;20.63;;
36691;SDS011;22678;52.052;4.242;2023-02-13T12:18:42;37.53;;;19.75;;
36691;SDS011;22678;52.052;4.242;2023-02-13T12:21:24;35.67;;;19.73;;
36691;SDS011;22678;52.052;4.242;2023-02-13T12:26:43;35.85;;;18.63;;
36691;SDS011;22678;52.052;4.242;2023-02-13T12:40:29;32.15;;;15.90;;
36691;SDS011;22678;52.052;4.242;2023-02-13T12:52:20;36.60;;;20.77;;
36691;SDS011;22678;52.052;4.242;2023-02-13T13:02:02;33.22;;;19.63;;
36691;SDS011;22678;52.052;4.242;2023-02-13T13:05:16;38.28;;;18.90;;
36691;SDS011;22678;52.052;4.242;2023-02-13T13:07:46;34.17;;;19.98;;
36691;SDS011;22678;52.052;4.242;2023-02-13T13:15:21;34.40;;;18.42;;
36691;SDS011;22678;52.052;4.242;2023-02-13T13:23:39;36.30;;;19.08;;
36691;SDS011;22678;52.052;4.242;2023-02-13T13:28:59;41.80;;;18.88;;
36691;SDS011;22678;52.052;4.242;2023-02-13T13:31:28;32.53;;;16.65;;
36691;SDS011;22678;52.052;4.242;2023-02-13T13:33:57;36.08;;;21.45;;
36691;SDS011;22678;52.052;4.242;2023-02-13T13:50:01;32.85;;;18.00;;
36691;SDS011;22678;52.052;4.242;2023-02-13T13:52:31;25.35;;;15.25;;
36691;SDS011;22678;52.052;4.242;2023-02-13T13:55:01;26.90;;;14.03;;
36691;SDS011;22678;52.052;4.242;2023-02-13T14:05:23;26.33;;;14.82;;
36691;SDS011;22678;52.052;4.242;2023-02-13T14:08:00;32.97;;;14.63;;
36691;SDS011;22678;52.052;4.242;2023-02-13T14:15:55;30.50;;;14.25;;
36691;SDS011;22678;52.052;4.242;2023-02-13T14:23:07;36.10;;;16.52;;
36691;SDS011;22678;52.052;4.242;2023-02-13T14:25:41;25.90;;;13.27;;
36691;SDS011;22678;52.052;4.242;2023-02-13T14:28:14;23.27;;;13.38;;
36691;SDS011;22678;52.052;4.242;2023-02-13T14:30:45;24.88;;;12.10;;
36691;SDS011;22678;52.052;4.242;2023-02-13T14:33:27;22.08;;;11.00;;
36691;SDS011;22678;52.052;4.242;2023-02-13T14:35:59;22.98;;;10.15;;
36691;SDS011;22678;52.052;4.242;2023-02-13T14:38:31;22.48;;;11.27;;
36691;SDS011;22678;52.052;4.242;2023-02-13T14:40:58;23.38;;;12.32;;
36691;SDS011;22678;52.052;4.242;2023-02-13T14:43:57;22.23;;;11.05;;
36691;SDS011;22678;52.052;4.242;2023-02-13T14:48:55;21.65;;;11.23;;
36691;SDS011;22678;52.052;4.242;2023-02-13T14:51:29;23.35;;;10.48;;
36691;SDS011;22678;52.052;4.242;2023-02-13T14:54:02;21.48;;;10.18;;
36691;SDS011;22678;52.052;4.242;2023-02-13T14:56:43;19.55;;;11.75;;
36691;SDS011;22678;52.052;4.242;2023-02-13T14:59:13;18.38;;;10.25;;
36691;SDS011;22678;52.052;4.242;2023-02-13T15:04:34;20.55;;;11.13;;
36691;SDS011;22678;52.052;4.242;2023-02-13T15:07:05;22.50;;;10.57;;
36691;SDS011;22678;52.052;4.242;2023-02-13T15:09:48;20.75;;;11.20;;
36691;SDS011;22678;52.052;4.242;2023-02-13T15:12:23;20.02;;;11.10;;
36691;SDS011;22678;52.052;4.242;2023-02-13T15:14:49;22.40;;;10.40;;
36691;SDS011;22678;52.052;4.242;2023-02-13T15:17:22;24.23;;;13.82;;
36691;SDS011;22678;52.052;4.242;2023-02-13T15:19:51;19.80;;;11.23;;
36691;SDS011;22678;52.052;4.242;2023-02-13T15:22:38;24.80;;;11.82;;
36691;SDS011;22678;52.052;4.242;2023-02-13T15:25:06;19.30;;;11.88;;
36691;SDS011;22678;52.052;4.242;2023-02-13T15:27:35;27.17;;;11.82;;
36691;SDS011;22678;52.052;4.242;2023-02-13T15:32:45;22.05;;;12.52;;
36691;SDS011;22678;52.052;4.242;2023-02-13T15:37:55;23.90;;;12.95;;
36691;SDS011;22678;52.052;4.242;2023-02-13T15:42:55;18.10;;;10.60;;
36691;SDS011;22678;52.052;4.242;2023-02-13T15:45:22;19.40;;;10.60;;
36691;SDS011;22678;52.052;4.242;2023-02-13T15:47:49;19.13;;;11.05;;
36691;SDS011;22678;52.052;4.242;2023-02-13T15:52:58;22.48;;;11.93;;
36691;SDS011;22678;52.052;4.242;2023-02-13T15:55:28;23.58;;;13.32;;
36691;SDS011;22678;52.052;4.242;2023-02-13T15:57:56;19.50;;;10.10;;
36691;SDS011;22678;52.052;4.242;2023-02-13T16:00:24;20.85;;;11.13;;
36691;SDS011;22678;52.052;4.242;2023-02-13T16:02:52;19.40;;;9.70;;
36691;SDS011;22678;52.052;4.242;2023-02-13T16:05:20;20.75;;;10.43;;
36691;SDS011;22678;52.052;4.242;2023-02-13T16:07:56;20.05;;;11.02;;
36691;SDS011;22678;52.052;4.242;2023-02-13T16:10:27;24.40;;;14.27;;
36691;SDS011;22678;52.052;4.242;2023-02-13T16:12:53;19.52;;;10.98;;
36691;SDS011;22678;52.052;4.242;2023-02-13T16:15:20;22.38;;;10.98;;
36691;SDS011;22678;52.052;4.242;2023-02-13T16:17:49;21.48;;;10.48;;
36691;SDS011;22678;52.052;4.242;2023-02-13T16:20:19;21.83;;;12.07;;
36691;SDS011;22678;52.052;4.242;2023-02-13T16:22:51;24.25;;;13.18;;
36691;SDS011;22678;52.052;4.242;2023-02-13T16:25:28;26.27;;;13.10;;
36691;SDS011;22678;52.052;4.242;2023-02-13T16:27:57;20.83;;;10.30;;
36691;SDS011;22678;52.052;4.242;2023-02-13T16:33:28;21.05;;;11.35;;
36691;SDS011;22678;52.052;4.242;2023-02-13T16:49:00;24.20;;;12.33;;
36691;SDS011;22678;52.052;4.242;2023-02-13T16:51:52;21.92;;;12.13;;
36691;SDS011;22678;52.052;4.242;2023-02-13T16:56:59;21.02;;;11.05;;
36691;SDS011;22678;52.052;4.242;2023-02-13T17:04:42;24.20;;;12.23;;
36691;SDS011;22678;52.052;4.242;2023-02-13T17:07:43;23.13;;;13.25;;
36691;SDS011;22678;52.052;4.242;2023-02-13T17:12:29;21.80;;;11.15;;
36691;SDS011;22678;52.052;4.242;2023-02-13T17:14:56;21.98;;;12.90;;
36691;SDS011;22678;52.052;4.242;2023-02-13T17:17:23;19.83;;;9.95;;
36691;SDS011;22678;52.052;4.242;2023-02-13T17:19:50;23.13;;;12.15;;
36691;SDS011;22678;52.052;4.242;2023-02-13T17:22:20;19.80;;;11.32;;
36691;SDS011;22678;52.052;4.242;2023-02-13T17:24:51;20.92;;;11.02;;
36691;SDS011;22678;52.052;4.242;2023-02-13T17:27:16;22.70;;;12.18;;
36691;SDS011;22678;52.052;4.242;2023-02-13T17:29:42;114.03;;;51.60;;
36691;SDS011;22678;52.052;4.242;2023-02-13T17:32:07;63.33;;;31.48;;
36691;SDS011;22678;52.052;4.242;2023-02-13T17:34:39;77.05;;;35.92;;
36691;SDS011;22678;52.052;4.242;2023-02-13T17:37:07;42.72;;;22.10;;
36691;SDS011;22678;52.052;4.242;2023-02-13T17:39:40;33.78;;;16.15;;
36691;SDS011;22678;52.052;4.242;2023-02-13T17:42:07;26.55;;;14.90;;
36691;SDS011;22678;52.052;4.242;2023-02-13T17:44:38;34.45;;;16.02;;
36691;SDS011;22678;52.052;4.242;2023-02-13T17:47:04;25.38;;;14.43;;
36691;SDS011;22678;52.052;4.242;2023-02-13T17:49:29;25.65;;;14.10;;
36691;SDS011;22678;52.052;4.242;2023-02-13T17:51:54;21.17;;;12.32;;
36691;SDS011;22678;52.052;4.242;2023-02-13T17:54:19;27.38;;;13.57;;
36691;SDS011;22678;52.052;4.242;2023-02-13T17:56:45;21.63;;;11.35;;
36691;SDS011;22678;52.052;4.242;2023-02-13T17:59:10;25.60;;;13.85;;
36691;SDS011;22678;52.052;4.242;2023-02-13T18:01:35;21.48;;;11.45;;
36691;SDS011;22678;52.052;4.242;2023-02-13T18:04:00;37.38;;;19.30;;
36691;SDS011;22678;52.052;4.242;2023-02-13T18:06:26;57.80;;;29.80;;
36691;SDS011;22678;52.052;4.242;2023-02-13T18:08:51;47.10;;;22.58;;
36691;SDS011;22678;52.052;4.242;2023-02-13T18:11:16;40.80;;;20.23;;